Time;durP1;ratioP1;P1;durP2;ratioP2;P2;SDS_P1;SDS_P2;PMS_P1;PMS_P2;Temp;Humidity;BMP_temperature;BMP_pressure;BME280_temperature;BME280_humidity;BME280_pressure;Samples;Min_cycle;Max_cycle;Signal;HPM_P1;HPM_P2
2022/05/29 00:00:19;;;;;;;0.30;0.30;;;10.50;74.30;;;;;;5033209;28;20570;-68
2022/05/29 00:02:48;;;;;;;0.30;0.30;;;10.40;75.70;;;;;;5033068;28;20520;-68
2022/05/29 00:05:13;;;;;;;0.30;0.30;;;10.40;77.20;;;;;;5033863;28;20322;-69
2022/05/29 00:07:40;;;;;;;0.30;0.30;;;10.40;78.10;;;;;;5037096;28;20750;-68
2022/05/29 00:10:10;;;;;;;0.50;0.50;;;10.30;79.40;;;;;;5036927;28;20187;-67
2022/05/29 00:12:35;;;;;;;0.60;0.60;;;10.20;82.30;;;;;;5036817;28;20178;-68
2022/05/29 00:15:02;;;;;;;0.30;0.30;;;10.20;81.60;;;;;;5037054;28;20171;-70
2022/05/29 00:17:28;;;;;;;0.30;0.30;;;10.10;82.00;;;;;;5036997;28;20261;-68
2022/05/29 00:19:54;;;;;;;0.30;0.30;;;9.90;84.60;;;;;;5036727;28;20281;-68
2022/05/29 00:22:22;;;;;;;0.30;0.30;;;10.00;84.80;;;;;;5036582;28;20167;-70
2022/05/29 00:24:49;;;;;;;0.30;0.30;;;9.80;87.40;;;;;;5036833;28;20206;-68
2022/05/29 00:27:18;;;;;;;0.40;0.40;;;9.70;87.70;;;;;;5036778;28;20167;-69
2022/05/29 00:29:44;;;;;;;1.25;1.20;;;9.70;88.40;;;;;;5036692;28;20250;-69
2022/05/29 00:32:10;;;;;;;0.30;0.30;;;9.60;88.50;;;;;;5036393;28;20174;-69
2022/05/29 00:34:36;;;;;;;0.30;0.30;;;9.60;90.10;;;;;;5036572;28;20186;-68
2022/05/29 00:37:06;;;;;;;9.93;1.30;;;9.50;90.20;;;;;;5036791;28;20569;-69
2022/05/29 00:39:31;;;;;;;0.30;0.30;;;9.40;90.50;;;;;;5036558;28;20400;-69
2022/05/29 00:41:58;;;;;;;0.30;0.30;;;9.40;90.70;;;;;;5036412;28;20233;-68
2022/05/29 00:44:29;;;;;;;0.30;0.30;;;9.40;90.80;;;;;;5036317;28;20453;-69
2022/05/29 00:46:57;;;;;;;0.30;0.30;;;9.40;91.20;;;;;;5036438;28;20182;-68
2022/05/29 00:49:34;;;;;;;0.30;0.30;;;9.30;91.10;;;;;;5036670;28;20166;-69
2022/05/29 00:52:29;;;;;;;0.30;0.30;;;9.20;91.10;;;;;;5034812;28;20170;-68
2022/05/29 00:55:10;;;;;;;0.30;0.30;;;9.20;91.40;;;;;;5031301;28;20190;-69
2022/05/29 00:58:03;;;;;;;0.30;0.30;;;9.10;91.30;;;;;;5034930;28;20181;-69
2022/05/29 01:00:31;;;;;;;0.30;0.30;;;9.10;92.10;;;;;;5034956;28;20631;-67
2022/05/29 01:02:59;;;;;;;0.40;0.40;;;9.10;91.90;;;;;;5035770;28;20277;-68
2022/05/29 01:05:28;;;;;;;0.40;0.40;;;9.10;92.10;;;;;;5036089;28;20254;-70
2022/05/29 01:07:58;;;;;;;0.30;0.30;;;9.10;92.20;;;;;;5035927;28;20173;-70
2022/05/29 01:10:47;;;;;;;0.30;0.30;;;9.00;92.30;;;;;;5035800;28;20230;-69
2022/05/29 01:13:45;;;;;;;0.30;0.30;;;9.00;92.30;;;;;;5035757;28;20570;-70
2022/05/29 01:16:34;;;;;;;0.40;0.40;;;9.00;92.70;;;;;;5031544;28;20178;-68
2022/05/29 01:19:21;;;;;;;0.30;0.30;;;9.00;92.40;;;;;;5035498;28;20647;-68
2022/05/29 01:22:15;;;;;;;0.30;0.30;;;9.00;92.40;;;;;;5035694;28;20678;-69
2022/05/29 01:24:52;;;;;;;0.30;0.30;;;8.90;92.70;;;;;;5035666;28;20289;-69
2022/05/29 01:27:33;;;;;;;0.30;0.30;;;8.90;92.70;;;;;;5035796;28;20623;-69
2022/05/29 01:30:16;;;;;;;0.35;0.35;;;8.90;93.20;;;;;;5035672;28;20579;-67
2022/05/29 01:32:45;;;;;;;0.68;0.68;;;8.80;93.30;;;;;;5034046;28;20518;-68
2022/05/29 01:35:15;;;;;;;0.30;0.30;;;8.80;93.60;;;;;;5035386;28;20178;-68
2022/05/29 01:37:57;;;;;;;0.38;0.38;;;8.70;93.40;;;;;;5035517;28;20182;-67
2022/05/29 01:40:35;;;;;;;0.30;0.30;;;8.80;93.60;;;;;;5035453;28;20272;-69
2022/05/29 01:43:16;;;;;;;0.30;0.30;;;8.70;94.10;;;;;;5035032;28;20158;-68
2022/05/29 01:45:53;;;;;;;2.10;1.95;;;8.60;94.20;;;;;;5035268;28;20253;-70
2022/05/29 01:48:40;;;;;;;0.40;0.40;;;8.50;94.00;;;;;;5035215;28;20166;-70
2022/05/29 01:51:31;;;;;;;0.35;0.35;;;8.60;94.20;;;;;;5034997;28;20189;-69
2022/05/29 01:53:59;;;;;;;0.30;0.30;;;8.50;94.40;;;;;;5034973;28;20246;-68
2022/05/29 01:56:34;;;;;;;0.30;0.30;;;8.50;94.50;;;;;;5035098;28;20204;-68
2022/05/29 01:59:17;;;;;;;0.30;0.30;;;8.50;94.40;;;;;;5035394;28;20185;-70
2022/05/29 02:01:48;;;;;;;0.40;0.40;;;8.40;93.70;;;;;;5035577;28;20225;-68
2022/05/29 02:04:19;;;;;;;0.40;0.40;;;8.50;93.80;;;;;;5034686;28;20292;-68
2022/05/29 02:09:39;;;;;;;0.40;0.40;;;8.30;94.20;;;;;;5035235;28;20240;-68
2022/05/29 02:12:10;;;;;;;0.30;0.30;;;8.50;94.70;;;;;;5034586;28;20212;-68
2022/05/29 02:14:41;;;;;;;0.30;0.30;;;8.50;94.80;;;;;;5034677;28;20173;-67
2022/05/29 02:17:29;;;;;;;0.40;0.40;;;8.40;94.80;;;;;;5035116;28;20214;-68
2022/05/29 02:20:07;;;;;;;0.30;0.30;;;8.40;94.90;;;;;;5034508;28;20216;-69
2022/05/29 02:22:35;;;;;;;0.30;0.30;;;8.30;94.70;;;;;;5034416;28;20165;-70
2022/05/29 02:25:11;;;;;;;0.40;0.40;;;8.30;94.80;;;;;;5033123;28;20214;-69
2022/05/29 02:28:02;;;;;;;0.32;0.32;;;8.30;94.90;;;;;;5034701;28;20174;-69
2022/05/29 02:30:38;;;;;;;0.30;0.30;;;8.20;94.90;;;;;;5033645;28;20544;-68
2022/05/29 02:33:07;;;;;;;0.30;0.30;;;8.10;95.00;;;;;;5034170;28;20162;-70
2022/05/29 02:35:45;;;;;;;0.40;0.40;;;8.20;95.10;;;;;;5034318;28;20170;-69
2022/05/29 02:38:14;;;;;;;0.30;0.30;;;8.20;95.10;;;;;;5034502;28;20561;-70
2022/05/29 02:40:54;;;;;;;0.40;0.40;;;8.10;95.50;;;;;;5034112;28;20276;-68
2022/05/29 02:43:32;;;;;;;0.40;0.40;;;8.10;95.70;;;;;;5033886;28;20205;-70
2022/05/29 02:46:09;;;;;;;0.40;0.40;;;8.20;95.90;;;;;;5034511;28;20174;-67
2022/05/29 02:48:41;;;;;;;0.30;0.30;;;8.20;96.10;;;;;;5034067;28;20597;-68
2022/05/29 02:51:12;;;;;;;0.38;0.38;;;8.20;96.20;;;;;;5033923;28;20243;-69
2022/05/29 02:53:42;;;;;;;0.38;0.38;;;8.30;96.30;;;;;;5033848;28;20176;-69
2022/05/29 02:56:08;;;;;;;0.50;0.50;;;8.30;96.10;;;;;;5034602;28;20170;-69
2022/05/29 02:58:35;;;;;;;0.30;0.30;;;8.30;95.80;;;;;;5034139;28;20185;-69
2022/05/29 03:01:20;;;;;;;0.30;0.30;;;8.40;96.10;;;;;;5033899;28;20820;-69
2022/05/29 03:04:07;;;;;;;0.30;0.30;;;8.50;95.90;;;;;;5033745;28;20740;-69
2022/05/29 03:06:37;;;;;;;0.30;0.30;;;8.60;95.40;;;;;;5034279;28;20178;-68
2022/05/29 03:09:11;;;;;;;0.30;0.30;;;8.60;95.40;;;;;;5033803;28;20227;-68
2022/05/29 03:11:38;;;;;;;0.32;0.32;;;8.60;95.40;;;;;;5033671;28;20220;-68
2022/05/29 03:14:19;;;;;;;0.35;0.35;;;8.70;95.20;;;;;;5033618;28;20674;-70
2022/05/29 03:17:11;;;;;;;0.40;0.40;;;8.70;95.00;;;;;;5033783;28;20530;-68
2022/05/29 03:20:01;;;;;;;0.38;0.38;;;8.70;94.60;;;;;;5033791;28;20571;-68
2022/05/29 03:23:05;;;;;;;0.30;0.30;;;8.70;94.40;;;;;;5033521;28;20177;-70
2022/05/29 03:25:37;;;;;;;0.30;0.30;;;8.70;94.90;;;;;;5029354;28;20201;-69
2022/05/29 03:28:07;;;;;;;0.30;0.30;;;8.60;95.30;;;;;;5033913;28;20204;-67
2022/05/29 03:30:36;;;;;;;0.30;0.30;;;8.60;95.70;;;;;;5033617;28;20198;-68
2022/05/29 03:33:06;;;;;;;0.40;0.40;;;8.60;96.10;;;;;;5033272;28;20223;-67
2022/05/29 03:35:51;;;;;;;0.40;0.40;;;8.60;96.00;;;;;;5033618;28;20580;-70
2022/05/29 03:38:16;;;;;;;0.30;0.30;;;8.60;96.10;;;;;;5033441;28;20182;-68
2022/05/29 03:40:42;;;;;;;0.30;0.30;;;8.60;96.30;;;;;;5034850;28;20194;-69
2022/05/29 03:43:08;;;;;;;0.30;0.30;;;8.60;95.70;;;;;;5037410;28;20666;-69
2022/05/29 03:45:34;;;;;;;0.30;0.30;;;8.60;95.10;;;;;;5037679;28;20173;-69
2022/05/29 03:48:00;;;;;;;0.30;0.30;;;8.60;95.40;;;;;;5037460;28;20177;-70
2022/05/29 03:50:26;;;;;;;0.40;0.40;;;8.60;95.40;;;;;;5036050;28;20518;-69
2022/05/29 03:52:53;;;;;;;0.88;0.88;;;8.60;95.80;;;;;;5037405;28;20212;-67
2022/05/29 03:55:20;;;;;;;0.30;0.30;;;8.70;95.60;;;;;;5037444;28;20656;-68
2022/05/29 03:57:47;;;;;;;0.40;0.40;;;8.70;95.80;;;;;;5037393;28;20229;-68
2022/05/29 04:00:13;;;;;;;0.40;0.40;;;8.70;95.70;;;;;;5037257;28;20203;-67
2022/05/29 04:02:40;;;;;;;0.30;0.30;;;8.70;95.60;;;;;;5036869;28;20588;-69
2022/05/29 04:05:10;;;;;;;0.30;0.30;;;8.70;95.70;;;;;;5037079;28;20217;-70
2022/05/29 04:13:13;;;;;;;0.30;0.30;;;8.90;95.50;;;;;;5037235;28;20196;-70
2022/05/29 04:15:45;;;;;;;0.30;0.30;;;9.00;95.60;;;;;;5037136;28;20163;-69
2022/05/29 04:18:12;;;;;;;0.30;0.30;;;9.10;95.50;;;;;;5037158;28;20575;-68
2022/05/29 04:20:37;;;;;;;0.30;0.30;;;9.20;95.20;;;;;;5036657;28;20236;-69
2022/05/29 04:23:03;;;;;;;0.30;0.30;;;9.30;94.80;;;;;;5036567;28;20297;-70
2022/05/29 04:25:29;;;;;;;0.30;0.30;;;9.50;94.50;;;;;;5036943;28;20190;-68
2022/05/29 04:27:54;;;;;;;0.30;0.30;;;9.70;94.60;;;;;;5037158;28;20579;-68
2022/05/29 04:30:20;;;;;;;0.40;0.40;;;9.70;94.30;;;;;;5036658;28;20186;-68
2022/05/29 04:33:01;;;;;;;0.30;0.30;;;9.90;94.80;;;;;;5036446;28;20174;-68
2022/05/29 04:35:35;;;;;;;0.30;0.30;;;10.20;94.20;;;;;;5036769;28;20166;-69
2022/05/29 04:38:00;;;;;;;0.32;0.32;;;10.70;94.20;;;;;;5036699;28;20170;-68
2022/05/29 04:40:26;;;;;;;0.30;0.30;;;11.10;93.00;;;;;;5036658;28;20191;-70
2022/05/29 04:42:52;;;;;;;0.30;0.30;;;11.40;91.90;;;;;;5036320;28;20691;-68
2022/05/29 04:45:17;;;;;;;0.30;0.30;;;11.50;91.20;;;;;;5035112;28;20206;-70
2022/05/29 04:47:43;;;;;;;0.30;0.30;;;11.40;91.00;;;;;;5036292;28;20240;-67
2022/05/29 04:50:10;;;;;;;0.30;0.30;;;11.30;91.20;;;;;;5036410;28;20565;-69
2022/05/29 04:52:35;;;;;;;0.30;0.30;;;11.10;91.90;;;;;;5034903;28;20179;-70
2022/05/29 04:55:02;;;;;;;0.30;0.30;;;11.00;92.10;;;;;;5036666;28;20265;-70
2022/05/29 04:57:28;;;;;;;0.40;0.40;;;11.00;92.20;;;;;;5036152;28;20178;-70
2022/05/29 04:59:53;;;;;;;0.30;0.30;;;11.10;92.40;;;;;;5036164;28;20248;-69
2022/05/29 05:02:19;;;;;;;0.40;0.40;;;11.30;92.10;;;;;;5036008;28;20578;-68
2022/05/29 05:04:45;;;;;;;0.30;0.30;;;11.50;91.40;;;;;;5036154;28;20200;-69
2022/05/29 05:07:10;;;;;;;0.50;0.50;;;11.50;90.90;;;;;;5036152;28;20514;-69
2022/05/29 05:09:36;;;;;;;0.30;0.30;;;11.60;90.90;;;;;;5035869;28;20530;-68
2022/05/29 05:12:02;;;;;;;0.30;0.30;;;11.80;91.20;;;;;;5035961;28;20168;-69
2022/05/29 05:14:28;;;;;;;0.30;0.30;;;11.80;91.00;;;;;;5035939;28;20598;-69
2022/05/29 05:16:54;;;;;;;0.30;0.30;;;11.80;90.70;;;;;;5035949;28;20398;-70
2022/05/29 05:19:21;;;;;;;0.30;0.30;;;11.70;90.50;;;;;;5034462;28;20814;-70
2022/05/29 05:21:47;;;;;;;0.30;0.30;;;11.50;90.60;;;;;;5035791;28;20452;-69
2022/05/29 05:24:12;;;;;;;0.40;0.40;;;11.40;91.10;;;;;;5035434;28;20548;-69
2022/05/29 05:26:38;;;;;;;0.30;0.30;;;11.60;91.90;;;;;;5035692;28;20411;-69
2022/05/29 05:29:04;;;;;;;0.30;0.30;;;11.90;91.80;;;;;;5035761;28;20656;-67
2022/05/29 05:31:30;;;;;;;0.30;0.30;;;12.20;91.80;;;;;;5035508;28;20189;-70
2022/05/29 05:33:56;;;;;;;0.30;0.30;;;12.50;90.80;;;;;;5035545;28;21025;-68
2022/05/29 05:36:22;;;;;;;0.30;0.30;;;12.80;90.10;;;;;;5035595;28;20455;-69
2022/05/29 05:38:47;;;;;;;0.30;0.30;;;13.00;90.10;;;;;;5035426;28;20260;-70
2022/05/29 05:41:14;;;;;;;0.30;0.30;;;13.10;89.10;;;;;;5035578;28;20336;-70
2022/05/29 05:43:40;;;;;;;0.40;0.40;;;13.10;88.30;;;;;;5034977;28;20205;-68
2022/05/29 05:46:11;;;;;;;0.30;0.30;;;13.10;88.80;;;;;;5035455;28;20404;-68
2022/05/29 05:48:39;;;;;;;0.30;0.30;;;12.90;86.50;;;;;;5035489;28;20397;-68
2022/05/29 05:51:05;;;;;;;0.30;0.30;;;13.00;89.30;;;;;;5035360;28;20562;-69
2022/05/29 05:53:31;;;;;;;0.30;0.30;;;12.90;90.40;;;;;;5035070;28;20770;-70
2022/05/29 05:55:57;;;;;;;0.40;0.40;;;12.80;86.60;;;;;;5035177;28;20786;-70
2022/05/29 05:58:23;;;;;;;0.30;0.30;;;12.70;86.70;;;;;;5035167;28;20416;-70
2022/05/29 06:00:49;;;;;;;0.30;0.30;;;12.70;90.00;;;;;;5034990;28;20276;-69
2022/05/29 06:03:16;;;;;;;0.30;0.30;;;12.60;89.20;;;;;;5034553;28;20548;-67
2022/05/29 06:05:42;;;;;;;0.30;0.30;;;12.50;88.20;;;;;;5035081;28;20495;-70
2022/05/29 06:08:07;;;;;;;0.30;0.30;;;12.50;89.10;;;;;;5035095;28;20397;-68
2022/05/29 06:10:34;;;;;;;0.30;0.30;;;12.90;90.90;;;;;;5034799;28;20784;-70
2022/05/29 06:13:04;;;;;;;0.30;0.30;;;13.50;91.20;;;;;;5034622;28;20406;-71
2022/05/29 06:15:31;;;;;;;0.30;0.30;;;14.10;89.50;;;;;;5034755;28;20412;-69
2022/05/29 06:17:57;;;;;;;0.30;0.30;;;14.70;85.20;;;;;;5034838;28;20408;-70
2022/05/29 06:20:24;;;;;;;0.30;0.30;;;15.30;81.30;;;;;;5034540;28;20946;-71
2022/05/29 06:22:50;;;;;;;0.60;0.60;;;16.10;77.50;;;;;;5034487;28;20393;-69
2022/05/29 06:25:17;;;;;;;0.30;0.30;;;16.60;72.00;;;;;;5034544;28;20810;-69
2022/05/29 06:27:43;;;;;;;0.40;0.40;;;16.90;72.30;;;;;;5034475;28;20905;-70
2022/05/29 06:30:11;;;;;;;0.30;0.30;;;17.40;72.90;;;;;;5034313;28;20463;-68
2022/05/29 06:32:37;;;;;;;0.30;0.30;;;18.40;69.40;;;;;;5034173;28;20494;-70
2022/05/29 06:35:04;;;;;;;0.30;0.30;;;20.00;66.30;;;;;;5034577;28;20501;-71
2022/05/29 06:37:31;;;;;;;0.30;0.30;;;21.50;59.70;;;;;;5034343;28;20398;-69
2022/05/29 06:39:57;;;;;;;0.40;0.40;;;22.60;56.20;;;;;;5034287;28;20511;-70
2022/05/29 06:42:22;;;;;;;0.40;0.40;;;24.00;54.80;;;;;;5034133;28;20445;-70
2022/05/29 06:44:48;;;;;;;0.30;0.30;;;25.60;50.20;;;;;;5034167;28;20206;-70
2022/05/29 06:47:15;;;;;;;0.30;0.30;;;26.00;48.20;;;;;;5034154;28;20175;-69
2022/05/29 06:49:41;;;;;;;0.60;0.60;;;25.30;46.60;;;;;;5034260;28;20302;-70
2022/05/29 06:52:11;;;;;;;0.30;0.30;;;24.60;46.20;;;;;;5032625;28;20922;-69
2022/05/29 06:54:38;;;;;;;0.30;0.30;;;23.60;46.40;;;;;;5033999;28;20380;-70
2022/05/29 06:57:06;;;;;;;0.30;0.30;;;22.40;47.70;;;;;;5034196;28;20424;-68
2022/05/29 07:06:58;;;;;;;0.30;0.30;;;21.30;49.90;;;;;;5033798;28;20413;-70
2022/05/29 07:07:50;;;;;;;0.60;0.60;;;18.10;56.50;;;;;;5033786;28;20417;-70
2022/05/29 07:10:15;;;;;;;0.30;0.30;;;17.40;58.20;;;;;;5033689;28;20441;-68
2022/05/29 07:12:41;;;;;;;0.30;0.30;;;16.80;58.20;;;;;;5033623;28;20169;-68
2022/05/29 07:15:07;;;;;;;0.30;0.30;;;16.30;58.60;;;;;;5033087;28;20631;-70
2022/05/29 07:17:33;;;;;;;0.30;0.30;;;15.80;59.70;;;;;;5033803;28;20584;-68
2022/05/29 07:19:59;;;;;;;0.30;0.30;;;15.90;64.90;;;;;;5033271;28;20449;-69
2022/05/29 07:22:27;;;;;;;0.30;0.30;;;16.40;62.00;;;;;;5032184;28;20928;-70
2022/05/29 07:24:53;;;;;;;0.30;0.30;;;17.70;59.10;;;;;;5034082;28;20194;-70
2022/05/29 07:27:18;;;;;;;0.30;0.30;;;19.00;58.40;;;;;;5033597;28;20395;-70
2022/05/29 07:29:44;;;;;;;0.30;0.30;;;20.10;55.70;;;;;;5033689;28;20176;-70
2022/05/29 07:32:11;;;;;;;0.30;0.30;;;20.70;53.00;;;;;;5033341;28;20169;-69
2022/05/29 07:34:37;;;;;;;0.40;0.40;;;20.50;53.10;;;;;;5033785;28;20221;-67
2022/05/29 07:37:05;;;;;;;0.30;0.30;;;19.80;54.80;;;;;;5033582;28;20410;-70
2022/05/29 07:39:41;;;;;;;0.60;0.60;;;18.90;53.20;;;;;;5033436;28;20527;-69
2022/05/29 07:44:53;;;;;;;0.30;0.30;;;16.90;57.70;;;;;;5033656;28;20959;-70
2022/05/29 07:47:22;;;;;;;0.30;0.30;;;16.00;59.70;;;;;;5033576;28;20800;-68
2022/05/29 07:49:49;;;;;;;0.40;0.40;;;15.50;62.50;;;;;;5033338;28;20467;-70
2022/05/29 07:52:14;;;;;;;0.30;0.30;;;15.50;66.90;;;;;;5033147;28;20403;-68
2022/05/29 07:54:40;;;;;;;0.30;0.30;;;17.50;64.60;;;;;;5033520;28;20416;-70
2022/05/29 07:57:06;;;;;;;0.30;0.30;;;20.20;57.10;;;;;;5033544;28;20437;-71
2022/05/29 07:59:32;;;;;;;0.30;0.30;;;22.50;51.60;;;;;;5033318;28;20171;-71
2022/05/29 08:01:57;;;;;;;0.30;0.30;;;24.20;51.90;;;;;;5033127;28;20873;-70
2022/05/29 08:04:23;;;;;;;0.30;0.30;;;25.80;46.40;;;;;;5033140;28;20198;-70
2022/05/29 08:06:50;;;;;;;0.50;0.50;;;26.90;42.30;;;;;;5033156;28;20174;-71
2022/05/29 08:09:16;;;;;;;0.30;0.30;;;27.10;41.90;;;;;;5033476;28;20481;-69
2022/05/29 08:11:42;;;;;;;0.30;0.30;;;27.20;39.20;;;;;;5033173;28;20640;-71
2022/05/29 08:14:08;;;;;;;0.40;0.40;;;27.80;39.20;;;;;;5033073;28;20410;-71
2022/05/29 08:16:34;;;;;;;0.30;0.30;;;27.70;37.00;;;;;;5033346;28;20421;-71
2022/05/29 08:19:00;;;;;;;0.30;0.30;;;26.20;37.00;;;;;;5032914;28;20211;-71
2022/05/29 08:21:26;;;;;;;0.40;0.40;;;25.10;40.00;;;;;;5032968;28;20430;-69
2022/05/29 08:32:04;;;;;;;0.30;0.30;;;19.40;50.00;;;;;;5036564;28;20378;-68
2022/05/29 08:34:29;;;;;;;0.30;0.30;;;18.50;49.90;;;;;;5036666;28;20408;-70
2022/05/29 08:36:55;;;;;;;0.30;0.30;;;17.70;49.10;;;;;;5036594;28;20411;-68
2022/05/29 08:39:22;;;;;;;0.30;0.30;;;17.00;51.10;;;;;;5036562;28;20182;-69
2022/05/29 08:41:51;;;;;;;0.30;0.30;;;16.80;52.80;;;;;;5036356;28;20775;-69
2022/05/29 08:44:17;;;;;;;0.30;0.30;;;16.50;55.60;;;;;;5036245;28;20457;-68
2022/05/29 08:46:49;;;;;;;0.30;0.30;;;16.30;55.60;;;;;;5036440;28;20941;-69
2022/05/29 08:49:18;;;;;;;0.30;0.30;;;16.00;56.10;;;;;;5036474;28;20777;-69
2022/05/29 08:52:18;;;;;;;0.40;0.40;;;15.70;57.20;;;;;;5036128;28;20422;-69
2022/05/29 08:55:17;;;;;;;0.40;0.40;;;15.40;56.80;;;;;;5036298;28;20761;-68
2022/05/29 08:58:08;;;;;;;0.40;0.40;;;15.00;61.80;;;;;;5036278;28;20428;-69
2022/05/29 09:01:04;;;;;;;0.40;0.40;;;14.90;61.80;;;;;;5036227;28;20420;-67
2022/05/29 09:03:49;;;;;;;0.30;0.30;;;14.80;63.90;;;;;;5036025;28;20936;-70
2022/05/29 09:06:31;;;;;;;0.30;0.30;;;14.80;65.70;;;;;;5036271;28;20492;-68
2022/05/29 09:08:57;;;;;;;0.30;0.30;;;14.00;65.10;;;;;;5035985;28;20914;-70
2022/05/29 09:11:55;;;;;;;0.30;0.30;;;14.10;68.10;;;;;;5035879;28;20475;-70
2022/05/29 09:14:33;;;;;;;0.40;0.40;;;14.20;69.00;;;;;;5035566;28;20214;-69
2022/05/29 09:17:16;;;;;;;0.30;0.30;;;14.50;68.70;;;;;;5036055;28;20505;-69
2022/05/29 09:19:44;;;;;;;0.30;0.30;;;14.70;67.60;;;;;;5035605;28;20421;-68
2022/05/29 09:22:14;;;;;;;0.30;0.30;;;14.90;69.00;;;;;;5035506;28;20767;-70
2022/05/29 09:24:49;;;;;;;0.30;0.30;;;15.00;65.30;;;;;;5035574;28;20511;-68
2022/05/29 09:27:16;;;;;;;0.70;0.70;;;15.00;64.80;;;;;;5035935;28;20400;-67
2022/05/29 09:29:41;;;;;;;0.30;0.30;;;14.90;64.60;;;;;;5035688;28;20768;-68
2022/05/29 09:32:18;;;;;;;0.30;0.30;;;14.80;65.20;;;;;;5035429;28;20416;-70
2022/05/29 09:35:00;;;;;;;0.30;0.30;;;14.80;67.60;;;;;;5035777;28;20416;-70
2022/05/29 09:37:53;;;;;;;0.30;0.30;;;14.70;65.40;;;;;;5035678;28;20401;-68
2022/05/29 09:40:27;;;;;;;0.30;0.30;;;14.30;64.40;;;;;;5035822;28;20931;-69
2022/05/29 09:42:54;;;;;;;0.30;0.30;;;13.90;65.30;;;;;;5035388;28;20948;-70
2022/05/29 09:45:20;;;;;;;0.30;0.30;;;13.70;69.50;;;;;;5035367;28;20449;-70
2022/05/29 09:50:53;;;;;;;0.30;0.30;;;13.10;72.10;;;;;;5035209;28;20227;-69
2022/05/29 09:53:19;;;;;;;0.30;0.30;;;12.80;75.00;;;;;;5034888;28;20395;-69
2022/05/29 09:56:03;;;;;;;0.30;0.30;;;12.40;75.60;;;;;;5035046;28;20531;-69
2022/05/29 09:58:36;;;;;;;0.30;0.30;;;12.50;79.10;;;;;;5034829;28;20870;-69
2022/05/29 10:01:05;;;;;;;0.30;0.30;;;12.50;83.30;;;;;;5034832;28;20424;-68
2022/05/29 10:03:46;;;;;;;0.40;0.40;;;12.70;85.90;;;;;;5034677;28;20454;-70
2022/05/29 10:06:23;;;;;;;0.40;0.40;;;12.80;82.20;;;;;;5034979;28;20730;-70
2022/05/29 10:08:52;;;;;;;0.30;0.30;;;13.20;80.90;;;;;;5035090;28;20489;-69
2022/05/29 10:11:27;;;;;;;0.30;0.30;;;14.10;87.50;;;;;;5035002;28;20421;-70
2022/05/29 10:13:53;;;;;;;0.30;0.30;;;15.00;83.40;;;;;;5034651;28;20436;-67
2022/05/29 10:16:35;;;;;;;0.30;0.30;;;15.50;78.60;;;;;;5035098;28;20836;-71
2022/05/29 10:19:01;;;;;;;0.30;0.30;;;15.50;76.50;;;;;;5034740;28;20458;-70
2022/05/29 10:21:31;;;;;;;0.30;0.30;;;15.20;74.60;;;;;;5034821;28;20422;-68
2022/05/29 10:24:36;;;;;;;0.30;0.30;;;14.70;73.90;;;;;;5034265;28;20456;-70
2022/05/29 10:27:03;;;;;;;0.47;0.47;;;14.40;75.80;;;;;;5033294;28;20449;-68
2022/05/29 10:29:32;;;;;;;0.30;0.30;;;14.20;74.90;;;;;;5034872;28;20430;-68
2022/05/29 10:32:02;;;;;;;0.30;0.30;;;14.00;75.60;;;;;;5034382;28;20393;-68
2022/05/29 10:34:30;;;;;;;0.30;0.30;;;14.00;76.60;;;;;;5033089;28;20941;-68
2022/05/29 10:36:56;;;;;;;0.30;0.30;;;14.10;79.80;;;;;;5034262;28;20501;-69
2022/05/29 10:39:25;;;;;;;0.30;0.30;;;14.20;82.70;;;;;;5034366;28;20397;-69
2022/05/29 10:41:53;;;;;;;0.30;0.30;;;14.40;82.50;;;;;;5034099;28;20427;-70
2022/05/29 10:44:39;;;;;;;0.30;0.30;;;14.70;81.60;;;;;;5034024;28;20457;-69
2022/05/29 10:47:07;;;;;;;0.40;0.40;;;14.50;79.70;;;;;;5034064;28;20785;-70
2022/05/29 10:49:39;;;;;;;0.40;0.40;;;14.20;78.60;;;;;;5033871;28;20401;-69
2022/05/29 10:52:16;;;;;;;0.30;0.30;;;14.00;77.50;;;;;;5032677;28;20390;-69
2022/05/29 10:55:09;;;;;;;0.30;0.30;;;13.70;75.10;;;;;;5034213;28;20898;-69
2022/05/29 10:58:23;;;;;;;0.30;0.30;;;13.40;71.70;;;;;;5034239;28;20415;-70
2022/05/29 11:03:17;;;;;;;0.30;0.30;;;13.50;77.70;;;;;;5028887;28;20462;-69
2022/05/29 11:04:31;;;;;;;1.33;0.90;;;13.80;80.00;;;;;;5033420;28;20452;-68
2022/05/29 11:07:03;;;;;;;0.40;0.40;;;14.30;79.00;;;;;;5033895;28;20878;-69
2022/05/29 11:09:48;;;;;;;0.30;0.30;;;15.00;80.40;;;;;;5034021;28;20400;-70
2022/05/29 11:12:37;;;;;;;0.30;0.30;;;15.50;75.00;;;;;;5033624;28;20384;-68
2022/05/29 11:15:46;;;;;;;0.30;0.30;;;15.90;77.10;;;;;;5033979;28;20394;-70
2022/05/29 11:18:47;;;;;;;0.30;0.30;;;16.30;74.30;;;;;;5011808;28;20406;-70
2022/05/29 11:21:52;;;;;;;0.30;0.30;;;16.70;71.10;;;;;;5033512;28;20799;-69
2022/05/29 11:24:48;;;;;;;0.30;0.30;;;16.90;70.10;;;;;;5033414;28;20487;-69
2022/05/29 11:27:41;;;;;;;0.30;0.30;;;17.10;65.90;;;;;;5033617;28;20394;-68
2022/05/29 11:30:41;;;;;;;0.30;0.30;;;16.80;67.10;;;;;;5033595;28;20430;-70
2022/05/29 11:33:24;;;;;;;0.30;0.30;;;16.50;68.60;;;;;;5033221;28;20402;-68
2022/05/29 11:35:52;;;;;;;0.30;0.30;;;16.20;67.10;;;;;;5033322;28;20404;-69
2022/05/29 11:38:57;;;;;;;0.30;0.30;;;16.20;70.50;;;;;;5033579;28;20402;-68
2022/05/29 11:41:26;;;;;;;0.30;0.30;;;15.60;65.30;;;;;;5033476;28;20565;-69
2022/05/29 11:44:18;;;;;;;0.50;0.50;;;16.10;74.40;;;;;;5033174;28;20532;-68
2022/05/29 11:52:54;;;;;;;0.30;0.30;;;15.50;66.70;;;;;;5033366;28;20427;-68
2022/05/29 11:55:27;;;;;;;0.30;0.30;;;15.30;68.50;;;;;;5013896;28;20930;-68
2022/05/29 11:57:58;;;;;;;0.30;0.30;;;15.30;73.90;;;;;;5033665;28;20883;-70
2022/05/29 12:00:34;;;;;;;0.40;0.40;;;15.40;70.10;;;;;;5033198;28;20429;-70
2022/05/29 12:03:13;;;;;;;0.50;0.50;;;15.50;71.10;;;;;;5036856;28;20443;-70
2022/05/29 12:06:19;;;;;;;0.30;0.30;;;15.30;68.10;;;;;;5037179;28;20441;-70
2022/05/29 12:09:00;;;;;;;0.30;0.30;;;15.30;68.30;;;;;;5037215;28;20485;-68
2022/05/29 12:11:38;;;;;;;0.30;0.30;;;15.20;66.40;;;;;;5037077;28;20482;-70
2022/05/29 12:14:18;;;;;;;0.30;0.30;;;15.20;66.80;;;;;;5037106;28;20419;-69
2022/05/29 12:16:47;;;;;;;0.30;0.30;;;15.10;67.30;;;;;;5037054;28;20436;-70
2022/05/29 12:19:39;;;;;;;0.30;0.30;;;15.20;70.00;;;;;;5036829;28;20440;-70
2022/05/29 12:22:08;;;;;;;0.40;0.40;;;15.30;74.90;;;;;;5036892;28;20393;-69
2022/05/29 12:24:38;;;;;;;0.50;0.50;;;15.40;67.40;;;;;;5036973;28;20459;-69
2022/05/29 12:27:24;;;;;;;0.30;0.30;;;15.30;66.80;;;;;;5037168;28;21000;-70
2022/05/29 12:29:55;;;;;;;0.30;0.30;;;15.40;68.80;;;;;;5036876;28;20436;-70
2022/05/29 12:32:26;;;;;;;0.30;0.30;;;15.40;71.20;;;;;;5036588;28;20408;-69
2022/05/29 12:35:13;;;;;;;0.30;0.30;;;15.60;60.90;;;;;;5036902;28;20806;-69
2022/05/29 12:38:15;;;;;;;0.30;0.30;;;15.70;59.50;;;;;;5036614;28;20406;-70
2022/05/29 12:41:07;;;;;;;0.30;0.30;;;15.80;62.50;;;;;;5036644;28;20432;-68
2022/05/29 12:43:48;;;;;;;0.33;0.33;;;16.00;62.10;;;;;;5036266;28;20400;-70
2022/05/29 12:46:40;;;;;;;0.73;0.73;;;16.40;58.90;;;;;;5036534;28;20432;-68
2022/05/29 12:49:39;;;;;;;0.60;0.60;;;16.90;51.90;;;;;;5036724;28;20555;-70
2022/05/29 12:52:37;;;;;;;0.30;0.30;;;17.10;50.90;;;;;;5036404;28;20378;-69
2022/05/29 12:55:05;;;;;;;0.30;0.30;;;17.70;52.70;;;;;;5034498;28;20968;-68
2022/05/29 12:57:40;;;;;;;0.40;0.40;;;18.00;52.20;;;;;;5036423;28;20859;-69
2022/05/29 13:00:10;;;;;;;0.30;0.30;;;18.10;51.10;;;;;;5036137;28;20934;-69
2022/05/29 13:02:54;;;;;;;0.30;0.30;;;17.60;51.60;;;;;;5036432;28;20475;-70
2022/05/29 13:05:38;;;;;;;0.30;0.30;;;17.60;52.30;;;;;;5036205;28;20449;-69
2022/05/29 13:08:20;;;;;;;0.30;0.30;;;17.70;52.90;;;;;;5036254;28;20425;-70
2022/05/29 13:10:51;;;;;;;0.30;0.30;;;17.80;51.50;;;;;;5035946;28;20483;-70
2022/05/29 13:13:46;;;;;;;0.30;0.30;;;17.20;48.40;;;;;;5034924;28;20878;-69
2022/05/29 13:16:34;;;;;;;0.40;0.40;;;17.20;51.60;;;;;;5035085;28;20445;-70
2022/05/29 13:19:26;;;;;;;0.30;0.30;;;17.30;57.30;;;;;;5035902;28;20508;-68
2022/05/29 13:21:51;;;;;;;0.30;0.30;;;16.90;58.50;;;;;;5035950;28;20467;-69
2022/05/29 13:24:18;;;;;;;0.30;0.30;;;17.00;57.50;;;;;;5035650;28;20445;-70
2022/05/29 13:26:44;;;;;;;0.40;0.40;;;17.10;54.30;;;;;;5035890;28;20171;-69
2022/05/29 13:29:35;;;;;;;0.30;0.30;;;17.40;55.80;;;;;;5036355;28;20416;-70
2022/05/29 13:32:12;;;;;;;0.30;0.30;;;17.70;51.30;;;;;;5035559;28;20159;-69
2022/05/29 13:34:49;;;;;;;0.30;0.30;;;17.50;50.60;;;;;;5034414;28;20468;-69
2022/05/29 13:37:38;;;;;;;0.30;0.30;;;16.90;49.60;;;;;;5034477;28;20410;-70
2022/05/29 13:40:10;;;;;;;0.30;0.30;;;16.80;51.70;;;;;;5035675;28;20453;-70
2022/05/29 13:42:51;;;;;;;0.30;0.30;;;16.90;55.20;;;;;;5035373;28;20456;-70
2022/05/29 13:45:43;;;;;;;0.30;0.30;;;17.00;55.00;;;;;;5035471;28;20549;-70
2022/05/29 13:48:27;;;;;;;0.30;0.30;;;17.00;52.40;;;;;;5025201;28;20418;-69
2022/05/29 13:51:12;;;;;;;0.30;0.30;;;16.70;49.60;;;;;;5035236;28;20839;-69
2022/05/29 13:53:56;;;;;;;0.30;0.30;;;16.40;51.80;;;;;;5035263;28;20733;-71
2022/05/29 13:56:57;;;;;;;0.30;0.30;;;16.20;51.40;;;;;;5035350;28;20394;-68
2022/05/29 14:05:40;;;;;;;0.30;0.30;;;16.40;51.00;;;;;;5034012;28;20460;-69